Time;durP1;ratioP1;P1;durP2;ratioP2;P2;SDS_P1;SDS_P2;PMS_P1;PMS_P2;Temp;Humidity;BMP_temperature;BMP_pressure;BME280_temperature;BME280_humidity;BME280_pressure;Samples;Min_cycle;Max_cycle;Signal;HPM_P1;HPM_P2
2023/12/27 00:01:13;;;;;;;;;;;;;;;4.04;100.00;99073.75;435648;1251;126132;-61
2023/12/27 00:11:18;;;;;;;;;;;;;;;3.85;100.00;99071.48;434881;1250;126144;-62
2023/12/27 00:21:23;;;;;;;;;;;;;;;3.65;100.00;99096.77;435234;1254;127649;-61
2023/12/27 00:31:27;;;;;;;;;;;;;;;3.58;100.00;99113.67;435577;1251;126053;-62
2023/12/27 00:41:32;;;;;;;;;;;;;;;3.54;100.00;99121.81;435559;1254;170004;-62
2023/12/27 00:51:36;;;;;;;;;;;;;;;3.43;100.00;99148.93;435531;1250;125936;-63
2023/12/27 01:01:41;;;;;;;;;;;;;;;3.44;100.00;99176.23;436820;1253;126148;-62
2023/12/27 01:11:46;;;;;;;;;;;;;;;3.55;100.00;99200.71;435814;1254;126709;-64
2023/12/27 01:21:50;;;;;;;;;;;;;;;3.49;100.00;99226.40;435432;1254;126253;-63
2023/12/27 01:31:55;;;;;;;;;;;;;;;3.39;100.00;99231.96;435709;1250;126147;-62
2023/12/27 01:41:59;;;;;;;;;;;;;;;3.40;100.00;99237.32;436309;1253;126988;-62
2023/12/27 01:52:04;;;;;;;;;;;;;;;3.48;100.00;99248.77;435322;1253;126026;-62
2023/12/27 02:02:08;;;;;;;;;;;;;;;3.46;100.00;99255.08;435446;1250;127041;-62
2023/12/27 02:12:23;;;;;;;;;;;;;;;3.34;100.00;99270.77;435217;1250;126477;-63
2023/12/27 02:22:28;;;;;;;;;;;;;;;3.23;100.00;99274.97;435026;1250;125955;-61
2023/12/27 02:32:32;;;;;;;;;;;;;;;3.12;100.00;99295.30;435367;1250;125951;-60
2023/12/27 02:42:38;;;;;;;;;;;;;;;2.96;100.00;99322.70;435789;1251;125977;-63
2023/12/27 02:52:42;;;;;;;;;;;;;;;2.84;100.00;99334.70;435548;1254;127504;-61
2023/12/27 03:02:47;;;;;;;;;;;;;;;2.54;100.00;99344.57;435560;1250;127084;-62
2023/12/27 03:12:51;;;;;;;;;;;;;;;2.26;100.00;99366.26;435637;1254;125925;-64
2023/12/27 03:22:56;;;;;;;;;;;;;;;2.22;100.00;99389.89;435242;1251;126084;-62
2023/12/27 03:33:00;;;;;;;;;;;;;;;2.30;100.00;99400.70;435028;1250;126063;-62
2023/12/27 03:43:05;;;;;;;;;;;;;;;2.37;100.00;99419.63;435688;1251;125986;-63
2023/12/27 03:53:10;;;;;;;;;;;;;;;2.41;100.00;99428.48;435111;1251;126937;-63
2023/12/27 04:03:14;;;;;;;;;;;;;;;2.43;100.00;99438.11;436458;1254;126799;-62
2023/12/27 04:13:19;;;;;;;;;;;;;;;2.43;100.00;99447.59;434940;1250;126269;-61
2023/12/27 04:23:23;;;;;;;;;;;;;;;2.45;100.00;99460.64;435024;1254;126115;-62
2023/12/27 04:33:28;;;;;;;;;;;;;;;2.46;100.00;99466.48;435076;1250;127063;-63
2023/12/27 04:43:32;;;;;;;;;;;;;;;2.49;100.00;99476.41;435733;1254;125927;-62
2023/12/27 04:53:37;;;;;;;;;;;;;;;2.53;100.00;99494.95;435590;1254;125992;-62
2023/12/27 05:03:41;;;;;;;;;;;;;;;2.57;100.00;99504.85;437876;1250;125866;-62
2023/12/27 05:13:46;;;;;;;;;;;;;;;2.61;100.00;99513.03;435188;1253;125737;-62
2023/12/27 05:23:50;;;;;;;;;;;;;;;2.65;100.00;99536.41;435574;1254;128758;-63
2023/12/27 05:33:54;;;;;;;;;;;;;;;2.54;100.00;99542.63;435664;1250;126883;-63
2023/12/27 05:44:01;;;;;;;;;;;;;;;2.38;100.00;99547.77;435831;1256;126740;-63
2023/12/27 05:54:05;;;;;;;;;;;;;;;2.24;100.00;99564.63;435692;1251;126775;-61
2023/12/27 06:04:10;;;;;;;;;;;;;;;2.21;100.00;99587.85;435501;1250;127122;-63
2023/12/27 06:14:14;;;;;;;;;;;;;;;2.31;100.00;99611.23;435201;1256;126333;-63
2023/12/27 06:24:18;;;;;;;;;;;;;;;2.39;100.00;99631.55;435436;1256;126057;-63
2023/12/27 06:34:23;;;;;;;;;;;;;;;2.45;100.00;99649.70;435153;1256;128604;-62
2023/12/27 06:44:27;;;;;;;;;;;;;;;2.48;100.00;99670.51;435452;1254;125960;-62
2023/12/27 06:54:32;;;;;;;;;;;;;;;2.52;100.00;99686.12;435774;1252;128592;-61
2023/12/27 07:04:37;;;;;;;;;;;;;;;2.51;100.00;99700.50;435396;1254;126441;-64
2023/12/27 07:14:42;;;;;;;;;;;;;;;2.50;100.00;99722.13;435955;1253;126865;-60
2023/12/27 07:24:48;;;;;;;;;;;;;;;2.50;100.00;99728.86;435100;1256;125814;-63
2023/12/27 07:34:57;;;;;;;;;;;;;;;2.48;100.00;99733.58;435037;1256;127043;-63
2023/12/27 07:45:03;;;;;;;;;;;;;;;2.67;100.00;99747.91;436239;1254;126309;-61
2023/12/27 07:55:08;;;;;;;;;;;;;;;2.89;100.00;99769.42;440478;1252;127691;-64
2023/12/27 08:05:13;;;;;;;;;;;;;;;3.04;100.00;99787.98;434685;1256;125993;-61
2023/12/27 08:15:17;;;;;;;;;;;;;;;3.16;100.00;99815.84;435147;1255;127077;-66
2023/12/27 08:25:22;;;;;;;;;;;;;;;3.42;100.00;99832.35;434944;1251;125606;-63
2023/12/27 08:35:26;;;;;;;;;;;;;;;4.57;100.00;99840.20;434980;1251;126885;-65
2023/12/27 08:45:30;;;;;;;;;;;;;;;5.11;100.00;99862.59;434862;1251;126631;-63
2023/12/27 08:55:35;;;;;;;;;;;;;;;4.63;100.00;99883.02;435065;1251;126516;-62
2023/12/27 09:05:39;;;;;;;;;;;;;;;4.29;100.00;99907.41;435010;1254;127116;-61
2023/12/27 09:15:44;;;;;;;;;;;;;;;4.23;100.00;99914.18;435030;1251;125972;-64
2023/12/27 09:25:48;;;;;;;;;;;;;;;4.18;100.00;99920.60;434887;1251;127091;-62
2023/12/27 09:35:52;;;;;;;;;;;;;;;4.07;100.00;99927.00;434759;1256;126409;-64
2023/12/27 09:45:57;;;;;;;;;;;;;;;4.15;100.00;99931.41;434626;1256;126303;-61
2023/12/27 09:56:02;;;;;;;;;;;;;;;4.26;100.00;99935.75;434952;1251;125515;-62
2023/12/27 10:06:13;;;;;;;;;;;;;;;4.42;100.00;99936.28;435666;1256;126926;-64
2023/12/27 10:16:18;;;;;;;;;;;;;;;4.47;100.00;99936.62;435031;1251;127471;-64
2023/12/27 10:26:23;;;;;;;;;;;;;;;4.51;100.00;99934.06;435025;1256;125927;-65
2023/12/27 10:36:28;;;;;;;;;;;;;;;4.56;99.97;99930.42;437769;1255;125642;-63
2023/12/27 10:46:33;;;;;;;;;;;;;;;4.70;99.96;99924.76;435027;1256;126334;-68
2023/12/27 10:56:39;;;;;;;;;;;;;;;4.84;99.84;99916.98;435193;1256;126313;-66
2023/12/27 11:06:44;;;;;;;;;;;;;;;4.93;99.35;99927.44;435850;1256;126698;-67
2023/12/27 11:16:50;;;;;;;;;;;;;;;4.92;98.66;99935.61;434958;1254;125669;-65
2023/12/27 11:27:01;;;;;;;;;;;;;;;4.85;97.80;99935.70;434920;1251;126087;-60
2023/12/27 11:37:06;;;;;;;;;;;;;;;4.66;97.25;99933.40;436425;1256;125715;-64
2023/12/27 11:47:13;;;;;;;;;;;;;;;4.45;96.83;99937.05;436545;1256;125932;-65
2023/12/27 11:57:18;;;;;;;;;;;;;;;4.28;97.46;99946.27;436440;1254;125765;-63
2023/12/27 12:07:40;;;;;;;;;;;;;;;4.22;97.59;99950.61;435401;1251;125845;-65
2023/12/27 12:17:48;;;;;;;;;;;;;;;3.97;96.97;99943.77;435623;1256;126710;-74
2023/12/27 12:27:52;;;;;;;;;;;;;;;3.73;97.41;99943.80;435906;1255;126741;-67
2023/12/27 12:37:57;;;;;;;;;;;;;;;3.61;97.39;99938.23;435754;1254;125595;-65
2023/12/27 12:48:02;;;;;;;;;;;;;;;3.44;97.93;99941.17;435648;1254;125871;-65
2023/12/27 12:58:08;;;;;;;;;;;;;;;3.44;98.69;99933.92;436029;1254;125689;-67
2023/12/27 13:08:14;;;;;;;;;;;;;;;3.52;98.91;99936.61;435754;1254;126346;-65
2023/12/27 13:18:19;;;;;;;;;;;;;;;3.47;98.42;99939.52;436224;1254;125788;-65
2023/12/27 13:28:26;;;;;;;;;;;;;;;3.24;98.59;99936.73;436412;1251;127618;-65
2023/12/27 13:38:30;;;;;;;;;;;;;;;2.98;98.51;99944.33;435991;1251;125597;-61
2023/12/27 13:48:35;;;;;;;;;;;;;;;2.76;98.66;99946.46;437461;1251;126550;-62
2023/12/27 13:58:40;;;;;;;;;;;;;;;2.56;99.14;99950.60;436342;1251;125679;-62
2023/12/27 14:08:44;;;;;;;;;;;;;;;2.34;99.55;99954.77;435706;1254;125702;-64
2023/12/27 14:18:49;;;;;;;;;;;;;;;2.09;99.85;99960.70;438036;1251;126007;-65
2023/12/27 14:28:55;;;;;;;;;;;;;;;1.81;100.00;99964.94;438266;1251;127136;-66
2023/12/27 14:39:04;;;;;;;;;;;;;;;1.52;100.00;99958.50;436093;1251;126044;-66
2023/12/27 14:49:10;;;;;;;;;;;;;;;1.22;100.00;99967.20;436802;1251;126064;-67
2023/12/27 14:59:15;;;;;;;;;;;;;;;0.93;100.00;99962.04;435780;1251;126525;-66
2023/12/27 15:09:22;;;;;;;;;;;;;;;0.68;100.00;99963.16;435532;1254;127471;-62
2023/12/27 15:19:27;;;;;;;;;;;;;;;0.41;100.00;99965.86;436578;1251;126298;-62
2023/12/27 15:29:33;;;;;;;;;;;;;;;0.15;100.00;99963.33;437100;1251;126606;-62
2023/12/27 15:39:37;;;;;;;;;;;;;;;-0.08;100.00;99971.23;436231;1254;126655;-64
2023/12/27 15:49:42;;;;;;;;;;;;;;;-0.35;100.00;99985.52;435656;1254;126406;-68
2023/12/27 15:59:47;;;;;;;;;;;;;;;-0.67;100.00;99990.71;436076;1251;126114;-62
2023/12/27 16:09:52;;;;;;;;;;;;;;;-0.95;100.00;99993.61;438723;1251;126159;-64
2023/12/27 16:19:57;;;;;;;;;;;;;;;-1.24;100.00;99985.45;436595;1251;143710;-66
2023/12/27 16:30:03;;;;;;;;;;;;;;;-1.54;100.00;99989.83;436582;1251;126160;-62
2023/12/27 16:40:09;;;;;;;;;;;;;;;-1.77;100.00;100005.63;435691;1251;126255;-62
2023/12/27 16:50:13;;;;;;;;;;;;;;;-1.97;100.00;100018.45;436028;1251;127683;-62
2023/12/27 17:00:18;;;;;;;;;;;;;;;-2.16;100.00;100017.16;435814;1254;126953;-62
2023/12/27 17:10:23;;;;;;;;;;;;;;;-2.30;100.00;100023.23;436105;1254;126364;-63
2023/12/27 17:20:27;;;;;;;;;;;;;;;-2.39;100.00;100024.98;435628;1254;126389;-60
2023/12/27 17:30:32;;;;;;;;;;;;;;;-2.43;100.00;100031.16;437237;1254;126858;-65
2023/12/27 17:40:38;;;;;;;;;;;;;;;-2.46;100.00;100034.61;435389;1250;126764;-63
2023/12/27 17:50:44;;;;;;;;;;;;;;;-2.49;100.00;100022.61;437376;1250;126598;-64
2023/12/27 18:00:49;;;;;;;;;;;;;;;-2.54;100.00;100011.48;435723;1254;127529;-63
2023/12/27 18:10:53;;;;;;;;;;;;;;;-2.59;100.00;100001.21;434967;1254;127406;-67
2023/12/27 18:20:58;;;;;;;;;;;;;;;-2.57;100.00;100000.36;435151;1251;126931;-62
2023/12/27 18:31:02;;;;;;;;;;;;;;;-2.47;100.00;99999.46;435103;1254;127360;-63
2023/12/27 18:41:07;;;;;;;;;;;;;;;-2.45;100.00;99997.40;434762;1251;126412;-63
2023/12/27 18:51:13;;;;;;;;;;;;;;;-2.52;100.00;100005.48;435218;1251;126432;-62
2023/12/27 19:01:17;;;;;;;;;;;;;;;-2.69;100.00;99998.50;435283;1251;126497;-62
2023/12/27 19:11:22;;;;;;;;;;;;;;;-2.76;100.00;99981.21;435070;1250;127263;-63
2023/12/27 19:21:26;;;;;;;;;;;;;;;-2.68;100.00;99970.22;434824;1254;126364;-64
2023/12/27 19:31:32;;;;;;;;;;;;;;;-2.74;100.00;99972.14;435359;1250;126933;-64
2023/12/27 19:41:37;;;;;;;;;;;;;;;-2.82;100.00;99970.96;436267;1251;127145;-62
2023/12/27 19:51:41;;;;;;;;;;;;;;;-2.87;100.00;99979.38;434921;1251;126657;-61
2023/12/27 20:01:45;;;;;;;;;;;;;;;-2.91;100.00;99973.73;435452;1254;126971;-60
2023/12/27 20:11:50;;;;;;;;;;;;;;;-2.89;100.00;99963.96;435420;1253;126924;-61
2023/12/27 20:21:54;;;;;;;;;;;;;;;-2.87;100.00;99945.11;435566;1253;127965;-60
2023/12/27 20:31:59;;;;;;;;;;;;;;;-2.75;100.00;99934.60;435554;1254;126327;-60
2023/12/27 20:42:04;;;;;;;;;;;;;;;-2.65;100.00;99960.98;435175;1251;126784;-61
2023/12/27 20:52:08;;;;;;;;;;;;;;;-2.66;100.00;99940.22;435502;1254;126153;-61
2023/12/27 21:02:12;;;;;;;;;;;;;;;-2.42;100.00;99909.77;435125;1254;128194;-62
2023/12/27 21:12:17;;;;;;;;;;;;;;;-2.14;100.00;99907.54;434873;1254;126964;-59
2023/12/27 21:22:21;;;;;;;;;;;;;;;-2.02;100.00;99900.59;434763;1255;127021;-60
2023/12/27 21:32:25;;;;;;;;;;;;;;;-2.07;100.00;99899.95;434764;1253;126048;-61
2023/12/27 21:42:30;;;;;;;;;;;;;;;-2.16;100.00;99877.53;436985;1253;126436;-60
2023/12/27 21:52:36;;;;;;;;;;;;;;;-2.17;100.00;99864.16;434798;1253;126559;-62
2023/12/27 22:02:40;;;;;;;;;;;;;;;-2.17;100.00;99847.02;436321;1254;126603;-61
2023/12/27 22:12:44;;;;;;;;;;;;;;;-2.14;100.00;99836.52;435324;1251;126118;-59
2023/12/27 22:22:49;;;;;;;;;;;;;;;-2.13;100.00;99828.45;435770;1250;126695;-60
2023/12/27 22:32:53;;;;;;;;;;;;;;;-2.19;100.00;99817.87;435213;1250;126345;-59
2023/12/27 22:43:00;;;;;;;;;;;;;;;-2.22;100.00;99779.99;437516;1253;125857;-59
2023/12/27 22:53:05;;;;;;;;;;;;;;;-2.24;100.00;99762.52;436003;1254;126549;-60
2023/12/27 23:03:10;;;;;;;;;;;;;;;-2.29;100.00;99772.15;435722;1250;126324;-60
2023/12/27 23:13:15;;;;;;;;;;;;;;;-2.16;100.00;99764.50;435340;1254;126037;-60
2023/12/27 23:23:19;;;;;;;;;;;;;;;-1.88;100.00;99732.31;435085;1253;127914;-60
2023/12/27 23:33:25;;;;;;;;;;;;;;;-1.65;100.00;99735.48;434983;1250;127383;-61
2023/12/27 23:43:30;;;;;;;;;;;;;;;-1.57;100.00;99724.41;435375;1250;126251;-60
2023/12/27 23:53:34;;;;;;;;;;;;;;;-1.60;100.00;99702.30;435076;1254;127253;-60
